createdAt,value
2022-08-05T00:01:30.141Z,1.95
2022-08-05T00:04:03.732Z,1.95
2022-08-05T00:06:33.188Z,1.58
2022-08-05T00:09:03.516Z,2.78
2022-08-05T00:11:40.394Z,2.70
2022-08-05T00:14:17.124Z,1.90
2022-08-05T00:16:52.743Z,1.65
2022-08-05T00:19:23.321Z,2.00
2022-08-05T00:21:51.659Z,1.95
2022-08-05T00:24:24.745Z,2.95
2022-08-05T00:26:53.238Z,2.10
2022-08-05T00:29:25.269Z,2.40
2022-08-05T00:32:09.391Z,2.25
2022-08-05T00:35:03.901Z,2.22
2022-08-05T00:37:35.876Z,2.45
2022-08-05T00:40:27.955Z,2.42
2022-08-05T00:42:58.145Z,2.67
2022-08-05T00:45:38.986Z,2.25
2022-08-05T00:48:12.492Z,2.42
2022-08-05T00:50:44.081Z,2.30
2022-08-05T00:54:01.431Z,2.45
2022-08-05T00:55:58.087Z,2.88
2022-08-05T00:58:27.525Z,2.63
2022-08-05T01:00:54.492Z,2.30
2022-08-05T01:03:22.907Z,3.10
2022-08-05T01:05:51.414Z,3.20
2022-08-05T01:08:30.646Z,3.50
2022-08-05T01:11:22.629Z,3.65
2022-08-05T01:14:00.095Z,3.97
2022-08-05T01:16:33.953Z,4.32
2022-08-05T01:19:46.081Z,3.88
2022-08-05T01:22:37.686Z,3.90
2022-08-05T01:26:06.225Z,4.60
2022-08-05T01:28:45.383Z,4.05
2022-08-05T01:31:28.007Z,4.00
2022-08-05T01:34:01.684Z,4.07
2022-08-05T01:36:34.262Z,4.57
2022-08-05T01:39:10.864Z,3.67
2022-08-05T01:41:39.424Z,5.15
2022-08-05T01:44:13.208Z,3.95
2022-08-05T01:46:46.368Z,3.50
2022-08-05T01:49:23.237Z,4.32
2022-08-05T01:51:55.252Z,4.53
2022-08-05T01:54:27.125Z,3.97
2022-08-05T01:58:14.701Z,4.50
2022-08-05T01:59:47.619Z,4.47
2022-08-05T02:02:15.809Z,4.70
2022-08-05T02:04:46.298Z,4.53
2022-08-05T02:07:22.233Z,4.28
2022-08-05T02:09:53.011Z,4.93
2022-08-05T02:12:37.175Z,5.90
2022-08-05T02:15:07.682Z,6.22
2022-08-05T02:18:31.138Z,6.95
2022-08-05T02:20:39.300Z,6.78
2022-08-05T02:23:10.860Z,5.95
2022-08-05T02:25:49.761Z,6.85
2022-08-05T02:28:29.156Z,6.35
2022-08-05T02:31:05.851Z,6.50
2022-08-05T02:33:41.956Z,6.90
2022-08-05T02:36:13.302Z,7.53
2022-08-05T02:38:45.605Z,7.18
2022-08-05T02:41:22.914Z,7.13
2022-08-05T02:44:02.992Z,7.95
2022-08-05T02:46:34.054Z,7.30
2022-08-05T02:49:01.783Z,7.47
2022-08-05T02:52:03.165Z,7.55
2022-08-05T02:54:36.373Z,7.07
2022-08-05T02:57:10.291Z,7.43
2022-08-05T02:59:54.793Z,8.95
2022-08-05T03:02:27.627Z,8.95
2022-08-05T03:04:57.298Z,12.23
2022-08-05T03:08:00.893Z,13.20
2022-08-05T03:10:15.907Z,14.90
2022-08-05T03:12:49.504Z,16.77
2022-08-05T03:15:20.042Z,18.40
2022-08-05T03:17:46.574Z,19.35
2022-08-05T03:20:13.566Z,18.42
2022-08-05T03:22:44.034Z,18.80
2022-08-05T03:25:33.508Z,18.50
2022-08-05T03:28:08.299Z,18.40
2022-08-05T03:30:36.687Z,20.52
2022-08-05T03:33:07.286Z,20.85
2022-08-05T03:35:41.215Z,21.45
2022-08-05T03:38:11.699Z,20.02
2022-08-05T03:40:48.550Z,19.23
2022-08-05T03:44:09.870Z,17.90
2022-08-05T03:46:04.710Z,18.08
2022-08-05T03:48:35.602Z,17.23
2022-08-05T03:52:38.610Z,17.05
2022-08-05T03:55:50.797Z,18.73
2022-08-05T03:56:54.050Z,16.30
2022-08-05T03:59:47.374Z,16.45
2022-08-05T04:02:38.257Z,18.35
2022-08-05T04:05:09.579Z,17.52
2022-08-05T04:07:58.295Z,16.42
2022-08-05T04:10:30.840Z,17.30
2022-08-05T04:12:59.214Z,17.27
2022-08-05T04:15:27.723Z,14.30
2022-08-05T04:18:00.095Z,15.20
2022-08-05T04:20:27.439Z,17.67
2022-08-05T04:22:54.332Z,14.02
2022-08-05T04:25:24.262Z,15.23
2022-08-05T04:28:11.288Z,14.57
2022-08-05T04:30:39.506Z,13.80
2022-08-05T04:33:06.342Z,12.77
2022-08-05T04:36:15.656Z,12.13
2022-08-05T04:38:21.276Z,12.80
2022-08-05T04:40:50.960Z,12.93
2022-08-05T04:43:17.822Z,11.45
2022-08-05T04:45:55.587Z,9.98
2022-08-05T04:48:28.068Z,12.95
2022-08-05T04:51:02.553Z,14.23
2022-08-05T04:53:38.855Z,17.17
2022-08-05T04:56:33.468Z,18.85
2022-08-05T04:58:56.060Z,20.02
2022-08-05T05:02:05.676Z,17.73
2022-08-05T05:04:12.775Z,17.75
2022-08-05T05:06:49.109Z,17.98
2022-08-05T05:09:18.658Z,20.25
2022-08-05T05:11:53.848Z,18.67
2022-08-05T05:14:27.895Z,16.65
2022-08-05T05:16:59.464Z,16.48
2022-08-05T05:19:27.498Z,18.73
2022-08-05T05:22:22.822Z,16.63
2022-08-05T05:24:57.278Z,14.85
2022-08-05T05:27:44.525Z,15.98
2022-08-05T05:30:31.558Z,14.65
2022-08-05T05:33:16.602Z,15.45
2022-08-05T05:35:48.005Z,15.10
2022-08-05T05:38:22.415Z,16.08
2022-08-05T05:40:55.046Z,14.00
2022-08-05T05:43:56.430Z,15.32
2022-08-05T05:46:17.195Z,15.40
2022-08-05T05:48:47.858Z,16.33
2022-08-05T05:51:25.963Z,17.85
2022-08-05T05:53:58.652Z,18.75
2022-08-05T05:56:32.936Z,10.38
2022-08-05T05:59:06.433Z,19.77
2022-08-05T06:01:39.753Z,19.00
2022-08-05T06:04:12.645Z,19.63
2022-08-05T06:06:42.679Z,17.58
2022-08-05T06:09:17.609Z,21.10
2022-08-05T06:12:01.368Z,18.38
2022-08-05T06:14:29.562Z,17.75
2022-08-05T06:16:57.047Z,20.73
2022-08-05T06:19:33.947Z,20.85
2022-08-05T06:22:06.373Z,22.70
2022-08-05T06:24:35.033Z,22.20
2022-08-05T06:27:02.076Z,22.77
2022-08-05T06:29:49.594Z,23.15
2022-08-05T06:32:26.302Z,22.15
2022-08-05T06:34:57.446Z,22.20
2022-08-05T06:37:52.410Z,20.55
2022-08-05T06:40:20.546Z,20.85
2022-08-05T06:42:51.887Z,17.15
2022-08-05T06:45:45.097Z,17.83
2022-08-05T06:48:36.900Z,17.13
2022-08-05T06:50:56.050Z,20.75
2022-08-05T06:53:28.681Z,18.30
2022-08-05T06:56:00.389Z,23.15
2022-08-05T06:58:35.257Z,25.70
2022-08-05T07:01:05.595Z,24.33
2022-08-05T07:03:33.292Z,24.67
2022-08-05T07:06:05.704Z,26.75
2022-08-05T07:08:42.132Z,21.20
2022-08-05T07:11:15.313Z,18.92
2022-08-05T07:14:01.485Z,18.98
2022-08-05T07:17:56.580Z,19.05
2022-08-05T07:22:28.346Z,20.45
2022-08-05T07:25:23.686Z,16.60
2022-08-05T07:27:57.456Z,14.48
2022-08-05T07:30:31.897Z,11.13
2022-08-05T07:33:05.078Z,9.32
2022-08-05T07:36:02.995Z,9.30
2022-08-05T07:38:26.497Z,7.30
2022-08-05T07:41:16.875Z,6.38
2022-08-05T07:43:50.262Z,6.40
2022-08-05T07:46:24.475Z,6.25
2022-08-05T07:49:02.656Z,6.75
2022-08-05T07:51:37.383Z,6.60
2022-08-05T07:56:59.912Z,8.68
2022-08-05T07:59:39.002Z,7.35
2022-08-05T08:02:15.788Z,7.10
2022-08-05T08:04:48.391Z,6.15
2022-08-05T08:07:15.688Z,6.57
2022-08-05T08:09:43.087Z,5.47
2022-08-05T08:12:27.535Z,4.47
2022-08-05T08:14:56.858Z,3.70
2022-08-05T08:17:28.929Z,4.43
2022-08-05T08:20:22.361Z,5.28
2022-08-05T08:22:43.536Z,3.40
2022-08-05T08:25:16.121Z,3.55
2022-08-05T08:27:47.650Z,3.60
2022-08-05T08:30:32.538Z,3.47
2022-08-05T08:33:13.927Z,3.37
2022-08-05T08:35:53.778Z,2.95
2022-08-05T08:38:35.293Z,2.72
2022-08-05T08:41:10.405Z,4.03
2022-08-05T08:45:18.644Z,3.22
2022-08-05T08:46:32.242Z,3.17
2022-08-05T08:50:05.992Z,4.00
2022-08-05T08:52:06.098Z,3.13
2022-08-05T08:54:37.534Z,3.00
2022-08-05T08:57:11.565Z,3.20
2022-08-05T08:59:41.977Z,3.40
2022-08-05T09:02:16.655Z,2.80
2022-08-05T09:04:57.767Z,3.00
2022-08-05T09:07:28.609Z,3.40
2022-08-05T09:09:59.306Z,3.05
2022-08-05T09:12:27.217Z,3.40
2022-08-05T09:14:59.383Z,4.13
2022-08-05T09:17:42.422Z,3.10
2022-08-05T09:20:11.927Z,3.60
2022-08-05T09:23:07.687Z,3.38
2022-08-05T09:26:02.518Z,2.72
2022-08-05T09:28:32.246Z,2.60
2022-08-05T09:31:43.646Z,3.10
2022-08-05T09:34:05.601Z,3.08
2022-08-05T09:36:54.783Z,2.72
2022-08-05T09:39:39.306Z,3.33
2022-08-05T09:42:23.080Z,3.50
2022-08-05T09:44:56.740Z,3.25
2022-08-05T09:47:35.206Z,2.83
2022-08-05T09:50:04.128Z,3.38
2022-08-05T10:04:41.065Z,2.40
2022-08-05T10:07:20.892Z,3.13
2022-08-05T10:10:14.443Z,3.17
2022-08-05T10:12:57.227Z,2.58
2022-08-05T10:15:27.960Z,2.30
2022-08-05T10:18:27.555Z,2.30
2022-08-05T10:20:59.659Z,2.08
2022-08-05T10:23:59.846Z,2.60
2022-08-05T10:26:32.692Z,3.30
2022-08-05T10:29:00.897Z,4.13
2022-08-05T10:32:53.915Z,3.50
2022-08-05T10:34:14.347Z,4.75
2022-08-05T10:36:44.061Z,5.63
2022-08-05T10:39:24.491Z,4.95
2022-08-05T10:42:22.902Z,6.07
2022-08-05T10:45:01.421Z,5.43
2022-08-05T10:47:33.607Z,5.30
2022-08-05T10:50:20.618Z,4.80
2022-08-05T10:52:59.845Z,6.47
2022-08-05T10:55:27.304Z,5.53
2022-08-05T10:58:11.197Z,6.28
2022-08-05T11:00:42.225Z,5.03
2022-08-05T11:03:24.216Z,4.93
2022-08-05T11:06:15.674Z,4.80
2022-08-05T11:09:32.101Z,5.80
2022-08-05T11:12:24.381Z,5.90
2022-08-05T11:15:19.945Z,7.38
2022-08-05T11:18:07.434Z,5.80
2022-08-05T11:20:44.332Z,5.75
2022-08-05T11:23:33.413Z,5.00
2022-08-05T11:26:28.583Z,4.65
2022-08-05T11:29:06.664Z,4.65
2022-08-05T11:31:58.579Z,4.93
2022-08-05T11:34:51.479Z,4.80
2022-08-05T11:38:28.579Z,4.60
2022-08-05T11:41:35.578Z,4.85
2022-08-05T11:44:04.968Z,4.97
2022-08-05T11:47:09.488Z,4.57
2022-08-05T11:49:28.305Z,4.93
2022-08-05T11:51:55.328Z,3.60
2022-08-05T11:54:33.554Z,3.72
2022-08-05T11:57:08.372Z,3.47
2022-08-05T11:59:50.660Z,4.03
2022-08-05T12:02:30.717Z,4.18
2022-08-05T12:05:01.340Z,3.50
2022-08-05T12:08:03.274Z,3.58
2022-08-05T12:10:42.859Z,3.22
2022-08-05T12:13:14.622Z,2.95
2022-08-05T12:15:45.205Z,3.22
2022-08-05T12:18:32.812Z,3.05
2022-08-05T12:21:15.155Z,2.45
2022-08-05T12:24:04.325Z,3.00
2022-08-05T12:26:32.911Z,2.95
2022-08-05T12:28:59.830Z,3.20
2022-08-05T12:31:40.623Z,2.58
2022-08-05T12:34:20.511Z,2.70
2022-08-05T12:36:50.642Z,2.40
2022-08-05T12:39:17.797Z,2.20
2022-08-05T12:41:45.454Z,2.35
2022-08-05T12:44:28.562Z,2.97
2022-08-05T12:47:02.365Z,2.83
2022-08-05T12:50:04.311Z,2.53
2022-08-05T12:52:38.754Z,3.70
2022-08-05T12:55:23.600Z,3.63
2022-08-05T12:58:49.832Z,4.20
2022-08-05T13:02:02.521Z,3.45
2022-08-05T13:03:34.922Z,3.38
2022-08-05T13:06:11.851Z,3.17
2022-08-05T13:08:38.938Z,3.00
2022-08-05T13:11:07.795Z,3.03
2022-08-05T13:14:05.885Z,3.30
2022-08-05T13:16:28.014Z,3.85
2022-08-05T13:18:58.649Z,2.72
2022-08-05T13:21:28.364Z,2.85
2022-08-05T13:24:05.528Z,2.15
2022-08-05T13:26:33.361Z,2.75
2022-08-05T13:29:00.706Z,2.00
2022-08-05T13:32:02.836Z,1.88
2022-08-05T13:34:22.859Z,7.07
2022-08-05T13:36:53.343Z,2.20
2022-08-05T13:40:13.153Z,1.60
2022-08-05T13:42:07.219Z,1.42
2022-08-05T13:44:34.824Z,2.35
2022-08-05T13:47:08.411Z,2.20
2022-08-05T13:49:49.516Z,1.98
2022-08-05T13:52:17.826Z,2.25
2022-08-05T13:54:53.226Z,1.27
2022-08-05T13:59:57.267Z,1.30
2022-08-05T14:02:26.564Z,1.30
2022-08-05T14:05:15.137Z,1.13
2022-08-05T14:07:59.476Z,1.17
2022-08-05T14:10:31.354Z,1.00
2022-08-05T14:12:58.652Z,1.15
2022-08-05T14:16:08.955Z,2.15
2022-08-05T14:18:18.189Z,1.75
2022-08-05T14:20:47.905Z,1.67
2022-08-05T14:23:23.940Z,1.65
2022-08-05T14:25:58.616Z,1.50
2022-08-05T14:28:36.514Z,1.40
2022-08-05T14:32:02.702Z,1.40
2022-08-05T14:34:06.831Z,1.10
2022-08-05T14:36:38.762Z,1.38
2022-08-05T14:39:10.980Z,1.80
2022-08-05T14:41:38.023Z,1.55
2022-08-05T14:44:21.770Z,1.95
2022-08-05T14:46:48.525Z,1.50
2022-08-05T14:49:15.367Z,1.52
2022-08-05T14:51:43.206Z,2.22
2022-08-05T14:54:28.440Z,1.55
2022-08-05T14:56:57.204Z,1.67
2022-08-05T14:59:23.859Z,1.58
2022-08-05T15:01:50.687Z,1.27
2022-08-05T15:04:20.699Z,1.17
2022-08-05T15:06:52.996Z,1.00
2022-08-05T15:09:52.463Z,0.90
2022-08-05T15:12:08.733Z,1.05
2022-08-05T15:14:44.211Z,0.98
2022-08-05T15:17:47.636Z,0.90
2022-08-05T15:20:03.557Z,1.08
2022-08-05T15:22:30.108Z,0.98
2022-08-05T15:24:58.926Z,1.63
2022-08-05T15:27:25.968Z,0.90
2022-08-05T15:29:56.529Z,0.90
2022-08-05T15:32:27.485Z,0.93
2022-08-05T15:34:56.812Z,1.00
2022-08-05T15:38:34.490Z,1.00
2022-08-05T15:40:59.390Z,0.88
2022-08-05T15:43:09.394Z,0.70
2022-08-05T15:45:45.731Z,0.60
2022-08-05T15:48:14.085Z,0.52
2022-08-05T15:50:43.839Z,0.70
2022-08-05T15:53:13.225Z,0.80
2022-08-05T15:56:03.167Z,0.70
2022-08-05T15:58:29.145Z,0.68
2022-08-05T16:01:11.735Z,0.60
2022-08-05T16:03:43.849Z,1.27
2022-08-05T16:06:11.488Z,0.50
2022-08-05T16:08:39.020Z,0.57
2022-08-05T16:11:08.071Z,0.55
2022-08-05T16:13:35.305Z,0.40
2022-08-05T16:16:03.785Z,0.60
2022-08-05T16:18:32.865Z,0.60
2022-08-05T16:21:04.413Z,0.50
2022-08-05T16:23:32.862Z,0.75
2022-08-05T16:26:18.727Z,0.40
2022-08-05T16:28:52.937Z,0.43
2022-08-05T16:31:21.155Z,0.60
2022-08-05T16:33:48.088Z,0.40
2022-08-05T16:36:14.971Z,0.40
2022-08-05T16:38:54.778Z,0.73
2022-08-05T16:42:13.585Z,0.60
2022-08-05T16:44:16.759Z,0.50
2022-08-05T16:46:56.109Z,0.60
2022-08-05T16:49:23.386Z,0.50
2022-08-05T16:51:51.022Z,0.70
2022-08-05T16:54:27.513Z,0.32
2022-08-05T16:56:58.656Z,0.40
2022-08-05T16:59:25.441Z,0.40
2022-08-05T17:01:56.162Z,0.40
2022-08-05T17:04:27.640Z,0.50
2022-08-05T17:06:59.955Z,0.50
2022-08-05T17:09:29.503Z,0.68
2022-08-05T17:11:59.689Z,0.73
2022-08-05T17:14:37.613Z,0.38
2022-08-05T17:17:06.707Z,0.40
2022-08-05T17:19:43.698Z,0.30
2022-08-05T17:22:24.477Z,0.60
2022-08-05T17:24:57.514Z,0.30
2022-08-05T17:27:26.106Z,0.63
2022-08-05T17:29:59.776Z,0.40
2022-08-05T17:32:29.202Z,0.40
2022-08-05T17:34:58.202Z,0.57
2022-08-05T17:37:40.066Z,0.45
2022-08-05T17:40:14.762Z,0.30
2022-08-05T17:42:51.961Z,0.40
2022-08-05T17:45:22.617Z,0.57
2022-08-05T17:47:55.727Z,0.50
2022-08-05T17:50:28.130Z,0.85
2022-08-05T17:53:00.746Z,0.40
2022-08-05T17:55:37.791Z,0.30
2022-08-05T17:58:11.239Z,0.73
2022-08-05T18:00:47.508Z,0.50
2022-08-05T18:06:11.715Z,0.50
2022-08-05T18:08:45.048Z,0.63
2022-08-05T18:11:24.549Z,0.50
2022-08-05T18:14:04.418Z,0.50
2022-08-05T18:16:35.668Z,0.50
2022-08-05T18:19:18.270Z,0.50
2022-08-05T18:22:08.891Z,0.52
2022-08-05T18:24:39.532Z,0.50
2022-08-05T18:27:12.587Z,0.50
2022-08-05T18:29:48.201Z,0.80
2022-08-05T18:32:20.395Z,0.50
2022-08-05T18:34:54.465Z,0.50
2022-08-05T18:37:34.264Z,0.50
2022-08-05T18:41:03.385Z,0.40
2022-08-05T18:42:54.704Z,0.40
2022-08-05T18:45:21.517Z,0.60
2022-08-05T18:47:56.292Z,0.50
2022-08-05T18:50:46.109Z,0.60
2022-08-05T18:53:19.294Z,0.60
2022-08-05T18:55:49.514Z,0.50
2022-08-05T18:58:16.476Z,0.60
2022-08-05T19:00:43.447Z,0.57
2022-08-05T19:03:14.920Z,0.68
2022-08-05T19:06:13.370Z,0.60
2022-08-05T19:08:30.759Z,0.45
2022-08-05T19:10:59.354Z,0.70
2022-08-05T19:13:25.995Z,0.52
2022-08-05T19:15:58.167Z,0.70
2022-08-05T19:18:28.601Z,0.50
2022-08-05T19:20:56.018Z,0.55
2022-08-05T19:24:07.683Z,0.50
2022-08-05T19:26:11.160Z,0.55
2022-08-05T19:28:43.447Z,0.50
2022-08-05T19:31:12.926Z,0.70
2022-08-05T19:33:48.293Z,0.70
2022-08-05T19:36:23.496Z,0.40
2022-08-05T19:38:50.125Z,0.85
2022-08-05T19:41:21.864Z,0.60
2022-08-05T19:44:12.956Z,0.52
2022-08-05T19:46:40.566Z,0.60
2022-08-05T19:49:08.280Z,0.65
2022-08-05T19:54:31.878Z,0.52
2022-08-05T19:56:59.434Z,0.43
2022-08-05T20:00:01.193Z,0.60
2022-08-05T20:02:14.716Z,0.82
2022-08-05T20:04:42.982Z,0.80
2022-08-05T20:07:13.767Z,1.08
2022-08-05T20:09:53.786Z,0.50
2022-08-05T20:12:23.499Z,0.70
2022-08-05T20:14:52.133Z,0.63
2022-08-05T20:17:23.544Z,0.80
2022-08-05T20:19:53.448Z,0.68
2022-08-05T20:22:27.210Z,0.50
2022-08-05T20:24:55.281Z,0.70
2022-08-05T20:27:26.464Z,1.60
2022-08-05T20:29:57.699Z,0.70
2022-08-05T20:32:26.250Z,1.20
2022-08-05T20:34:53.091Z,0.50
2022-08-05T20:38:04.573Z,0.80
2022-08-05T20:40:08.607Z,0.90
2022-08-05T20:42:35.605Z,0.50
2022-08-05T20:45:02.939Z,0.90
2022-08-05T20:47:32.001Z,0.50
2022-08-05T20:49:59.453Z,0.55
2022-08-05T20:52:26.476Z,0.70
2022-08-05T20:55:54.946Z,1.27
2022-08-05T20:57:43.053Z,0.60
2022-08-05T21:00:41.432Z,0.52
2022-08-05T21:03:06.350Z,0.90
2022-08-05T21:05:47.937Z,0.68
2022-08-05T21:08:28.060Z,0.80
2022-08-05T21:11:09.985Z,0.70
2022-08-05T21:13:55.673Z,0.70
2022-08-05T21:19:00.538Z,0.70
2022-08-05T21:21:39.568Z,0.85
2022-08-05T21:24:12.933Z,0.63
2022-08-05T21:26:41.202Z,0.93
2022-08-05T21:29:12.559Z,0.90
2022-08-05T21:31:43.519Z,1.02
2022-08-05T21:34:11.041Z,0.85
2022-08-05T21:36:38.185Z,0.77
2022-08-05T21:39:04.945Z,0.73
2022-08-05T21:41:34.233Z,0.90
2022-08-05T21:44:04.311Z,0.88
2022-08-05T21:46:34.561Z,0.73
2022-08-05T21:49:07.119Z,0.70
2022-08-05T21:52:22.675Z,0.85
2022-08-05T21:54:30.897Z,1.58
2022-08-05T21:57:29.206Z,0.93
2022-08-05T22:00:02.104Z,0.95
2022-08-05T22:02:39.471Z,0.85
2022-08-05T22:05:09.322Z,1.00
2022-08-05T22:07:39.717Z,0.80
2022-08-05T22:10:26.585Z,0.70
2022-08-05T22:12:53.451Z,0.60
2022-08-05T22:16:02.601Z,1.05
2022-08-05T22:18:08.683Z,0.73
2022-08-05T22:20:39.195Z,1.48
2022-08-05T22:24:01.242Z,0.90
2022-08-05T22:26:31.389Z,1.00
2022-08-05T22:29:00.478Z,1.17
2022-08-05T22:31:29.948Z,0.80
2022-08-05T22:34:00.904Z,0.70
2022-08-05T22:36:28.262Z,1.13
2022-08-05T22:38:55.976Z,1.15
2022-08-05T22:42:04.668Z,0.73
2022-08-05T22:44:12.079Z,0.88
2022-08-05T22:46:40.698Z,1.02
2022-08-05T22:49:46.010Z,0.98
2022-08-05T22:52:06.673Z,0.90
2022-08-05T22:54:36.167Z,0.82
2022-08-05T22:57:04.632Z,1.08
2022-08-05T22:59:43.602Z,1.00
2022-08-05T23:02:16.586Z,0.95
2022-08-05T23:04:51.285Z,0.80
2022-08-05T23:07:18.617Z,1.20
2022-08-05T23:09:57.280Z,1.00
2022-08-05T23:12:32.612Z,1.02
2022-08-05T23:15:08.790Z,1.00
2022-08-05T23:17:37.892Z,1.00
2022-08-05T23:20:23.566Z,1.40
2022-08-05T23:22:55.983Z,1.10
2022-08-05T23:25:52.477Z,1.20
2022-08-05T23:28:11.157Z,0.80
2022-08-05T23:30:43.510Z,1.10
2022-08-05T23:33:21.837Z,1.00
2022-08-05T23:35:52.607Z,0.90
2022-08-05T23:38:24.186Z,1.00
2022-08-05T23:40:52.876Z,1.08
2022-08-05T23:43:24.797Z,1.27
2022-08-05T23:46:05.034Z,1.10
2022-08-05T23:48:47.417Z,1.00
2022-08-05T23:51:52.427Z,1.02
2022-08-05T23:54:25.869Z,1.08
2022-08-05T23:57:03.286Z,1.00
